Time;durP1;ratioP1;P1;durP2;ratioP2;P2;SDS_P1;SDS_P2;PMS_P1;PMS_P2;Temp;Humidity;BMP_temperature;BMP_pressure;BME280_temperature;BME280_humidity;BME280_pressure;Samples;Min_cycle;Max_cycle;Signal;HPM_P1;HPM_P2
2021/11/03 00:00:42;;;;;;;17.05;3.50;;;13.50;99.90;;;;;;5030344;28;20029;-76
2021/11/03 00:03:08;;;;;;;16.67;3.83;;;13.50;99.90;;;;;;5041650;28;20071;-76
2021/11/03 00:05:34;;;;;;;12.95;3.15;;;13.50;99.90;;;;;;5046182;28;20033;-76
2021/11/03 00:08:01;;;;;;;12.25;2.90;;;13.40;99.90;;;;;;5036484;28;20033;-76
2021/11/03 00:10:27;;;;;;;16.08;2.95;;;13.40;99.90;;;;;;5030869;28;20026;-77
2021/11/03 00:12:53;;;;;;;21.75;2.50;;;13.40;99.90;;;;;;5040589;28;20031;-76
2021/11/03 00:15:18;;;;;;;15.57;2.78;;;13.40;99.90;;;;;;5080384;28;20035;-76
2021/11/03 00:17:44;;;;;;;14.88;2.95;;;13.50;99.90;;;;;;5044081;28;20396;-76
2021/11/03 00:20:12;;;;;;;13.05;2.95;;;13.50;99.90;;;;;;5050307;28;20068;-76
2021/11/03 00:22:38;;;;;;;11.52;2.22;;;13.50;99.90;;;;;;5042871;28;20025;-76
2021/11/03 00:25:05;;;;;;;10.30;2.13;;;13.50;99.90;;;;;;5045051;28;20577;-76
2021/11/03 00:27:31;;;;;;;14.07;2.70;;;13.50;99.90;;;;;;5042963;28;20147;-76
2021/11/03 00:29:57;;;;;;;13.18;3.03;;;13.60;99.90;;;;;;5034431;28;20604;-76
2021/11/03 00:32:22;;;;;;;14.93;2.92;;;13.60;99.90;;;;;;5038619;28;20419;-78
2021/11/03 00:34:48;;;;;;;10.65;2.28;;;13.60;99.90;;;;;;5043742;28;20029;-76
2021/11/03 00:37:14;;;;;;;14.60;3.10;;;13.60;99.90;;;;;;5046024;28;20033;-77
2021/11/03 00:39:41;;;;;;;12.43;2.85;;;13.60;99.90;;;;;;5042826;28;20021;-77
2021/11/03 00:42:07;;;;;;;17.90;2.97;;;13.60;99.90;;;;;;5042489;28;20120;-76
2021/11/03 00:44:33;;;;;;;13.52;2.50;;;13.60;99.90;;;;;;5036861;28;20491;-76
2021/11/03 00:47:01;;;;;;;12.77;2.45;;;13.50;99.90;;;;;;5035224;28;20025;-76
2021/11/03 00:49:27;;;;;;;15.63;2.75;;;13.50;99.90;;;;;;5039808;28;20030;-76
2021/11/03 00:51:52;;;;;;;16.05;3.17;;;13.40;99.90;;;;;;5034513;28;20160;-76
2021/11/03 00:54:18;;;;;;;17.30;3.20;;;13.30;99.90;;;;;;5040260;28;20396;-76
2021/11/03 00:56:46;;;;;;;15.38;2.95;;;13.20;99.90;;;;;;5036705;28;20036;-76
2021/11/03 00:59:12;;;;;;;11.60;2.92;;;13.10;99.90;;;;;;5044152;28;20392;-76
2021/11/03 01:01:38;;;;;;;16.48;2.80;;;13.00;99.90;;;;;;5048710;28;20047;-76
2021/11/03 01:04:04;;;;;;;7.47;2.17;;;12.90;99.90;;;;;;5072996;28;20032;-76
2021/11/03 01:06:30;;;;;;;13.32;3.08;;;12.80;99.90;;;;;;5045586;28;20029;-76
2021/11/03 01:08:55;;;;;;;12.75;2.45;;;12.70;99.90;;;;;;5041993;28;20043;-76
2021/11/03 01:11:21;;;;;;;18.98;3.10;;;12.70;99.90;;;;;;5033584;28;20463;-76
2021/11/03 01:13:47;;;;;;;10.95;2.72;;;12.70;99.90;;;;;;5042907;28;20017;-77
2021/11/03 01:16:13;;;;;;;13.02;3.03;;;12.70;99.90;;;;;;5030221;28;20539;-77
2021/11/03 01:18:39;;;;;;;11.40;2.88;;;12.60;99.90;;;;;;5038767;28;20426;-76
2021/11/03 01:21:04;;;;;;;13.95;2.35;;;12.60;99.90;;;;;;5050993;28;20021;-77
2021/11/03 01:23:31;;;;;;;15.55;3.10;;;12.60;99.90;;;;;;5043453;28;20036;-76
2021/11/03 01:25:57;;;;;;;17.33;2.90;;;12.50;99.90;;;;;;5035335;28;20574;-77
2021/11/03 01:28:23;;;;;;;17.73;2.95;;;12.40;99.90;;;;;;5036153;28;20567;-77
2021/11/03 01:30:49;;;;;;;15.63;2.75;;;12.30;99.90;;;;;;5064343;28;20029;-75
2021/11/03 01:33:20;;;;;;;15.88;2.53;;;12.30;99.90;;;;;;5040467;28;20111;-76
2021/11/03 01:35:47;;;;;;;9.13;2.58;;;12.30;99.90;;;;;;5043667;28;20021;-76
2021/11/03 01:38:14;;;;;;;11.32;2.60;;;12.30;99.90;;;;;;5045507;28;20029;-76
2021/11/03 01:40:43;;;;;;;17.95;2.88;;;12.20;99.90;;;;;;5050224;28;20526;-76
2021/11/03 01:43:28;;;;;;;16.00;3.20;;;12.20;99.90;;;;;;5046691;28;20024;-75
2021/11/03 01:46:31;;;;;;;15.57;3.03;;;12.20;99.90;;;;;;5064222;28;20037;-76
2021/11/03 01:49:01;;;;;;;14.45;2.63;;;12.30;99.90;;;;;;5045925;28;20390;-76
2021/11/03 01:51:39;;;;;;;10.15;2.50;;;12.30;99.90;;;;;;5046772;28;20078;-76
2021/11/03 01:54:08;;;;;;;14.90;3.08;;;12.40;99.90;;;;;;5046678;28;20039;-76
2021/11/03 01:56:34;;;;;;;11.82;2.58;;;12.40;99.90;;;;;;5046480;28;20029;-76
2021/11/03 01:59:12;;;;;;;13.25;2.72;;;12.40;99.90;;;;;;5043436;28;20025;-76
2021/11/03 02:01:38;;;;;;;14.00;3.15;;;12.40;99.90;;;;;;5049973;28;20396;-77
2021/11/03 02:04:06;;;;;;;17.00;2.58;;;12.30;99.90;;;;;;5041551;28;20033;-76
2021/11/03 02:06:33;;;;;;;15.50;2.45;;;12.10;99.90;;;;;;5050334;28;20082;-76
2021/11/03 02:08:59;;;;;;;14.43;2.67;;;12.10;99.90;;;;;;5045894;28;20025;-77
2021/11/03 02:11:27;;;;;;;13.45;2.65;;;12.00;99.90;;;;;;5049001;28;20025;-76
2021/11/03 02:13:54;;;;;;;19.35;2.53;;;11.90;99.90;;;;;;5038948;28;20025;-76
2021/11/03 02:16:22;;;;;;;13.10;2.42;;;12.00;99.90;;;;;;5032712;28;20029;-76
2021/11/03 02:18:49;;;;;;;18.50;2.88;;;12.10;99.90;;;;;;5039777;28;20029;-77
2021/11/03 02:21:18;;;;;;;17.33;2.70;;;12.20;99.90;;;;;;5048977;28;20387;-76
2021/11/03 02:24:00;;;;;;;14.00;2.58;;;12.30;99.90;;;;;;5040638;28;20487;-76
2021/11/03 02:26:37;;;;;;;11.50;2.53;;;12.40;99.90;;;;;;5049383;28;20025;-77
2021/11/03 02:29:06;;;;;;;14.02;2.80;;;12.50;99.90;;;;;;5044039;28;20037;-76
2021/11/03 02:31:47;;;;;;;16.65;2.60;;;12.50;99.90;;;;;;5035084;28;20017;-76
2021/11/03 02:34:21;;;;;;;12.85;2.05;;;12.50;99.90;;;;;;5039958;28;20507;-76
2021/11/03 02:37:23;;;;;;;13.75;2.92;;;12.40;99.90;;;;;;5033276;28;20026;-76
2021/11/03 02:39:53;;;;;;;14.83;2.40;;;12.40;99.90;;;;;;5036145;28;20026;-77
2021/11/03 02:42:20;;;;;;;13.20;2.83;;;12.50;99.90;;;;;;5035976;28;20108;-77
2021/11/03 02:44:47;;;;;;;14.38;2.78;;;12.40;99.90;;;;;;5069831;28;20037;-76
2021/11/03 02:47:14;;;;;;;14.50;2.78;;;12.40;99.90;;;;;;5039027;28;20048;-76
2021/11/03 02:49:41;;;;;;;18.50;2.83;;;12.40;99.90;;;;;;5050709;28;20086;-76
2021/11/03 02:52:11;;;;;;;21.20;2.70;;;12.30;99.90;;;;;;5050232;28;20041;-77
2021/11/03 02:54:37;;;;;;;16.15;2.70;;;12.30;99.90;;;;;;5047392;28;20048;-76
2021/11/03 02:57:03;;;;;;;15.00;2.90;;;12.40;99.90;;;;;;5051095;28;20118;-76
2021/11/03 02:59:29;;;;;;;12.98;2.13;;;12.40;99.90;;;;;;5046364;28;20592;-76
2021/11/03 03:01:58;;;;;;;14.20;2.42;;;12.40;99.90;;;;;;5049915;28;20527;-76
2021/11/03 03:04:31;;;;;;;9.27;2.25;;;12.40;99.90;;;;;;5043639;28;20102;-76
2021/11/03 03:06:58;;;;;;;9.93;2.38;;;12.40;99.90;;;;;;5037628;28;20060;-76
2021/11/03 03:09:25;;;;;;;12.57;2.78;;;12.30;99.90;;;;;;5043672;28;20116;-76
2021/11/03 03:11:59;;;;;;;10.27;2.40;;;12.30;99.90;;;;;;5042312;28;20024;-76
2021/11/03 03:14:30;;;;;;;10.65;2.50;;;12.20;99.90;;;;;;5053225;28;20032;-76
2021/11/03 03:16:57;;;;;;;10.13;2.20;;;12.20;99.90;;;;;;5049670;28;20026;-76
2021/11/03 03:19:26;;;;;;;11.90;2.50;;;12.10;99.90;;;;;;5043496;28;20404;-76
2021/11/03 03:21:53;;;;;;;17.52;2.97;;;12.00;99.90;;;;;;5036137;28;20491;-76
2021/11/03 03:24:19;;;;;;;13.88;2.85;;;12.00;99.90;;;;;;5043395;28;20028;-76
2021/11/03 03:26:46;;;;;;;16.98;2.70;;;12.00;99.90;;;;;;5035890;28;20029;-76
2021/11/03 03:29:13;;;;;;;11.05;2.25;;;12.00;99.90;;;;;;5043395;28;20096;-76
2021/11/03 03:31:38;;;;;;;15.88;2.28;;;11.90;99.90;;;;;;5036252;28;20033;-76
2021/11/03 03:34:09;;;;;;;14.63;2.70;;;11.90;99.90;;;;;;5046644;28;20044;-76
2021/11/03 03:36:36;;;;;;;12.68;2.38;;;11.90;99.90;;;;;;5038396;28;20025;-76
2021/11/03 03:39:08;;;;;;;15.50;2.50;;;11.90;99.90;;;;;;5043643;28;20037;-76
2021/11/03 03:41:34;;;;;;;10.15;2.53;;;11.90;99.90;;;;;;5039780;28;20028;-76
2021/11/03 03:43:59;;;;;;;11.88;2.17;;;11.80;99.90;;;;;;5042033;28;20091;-76
2021/11/03 03:46:25;;;;;;;15.88;2.42;;;11.90;99.90;;;;;;5067484;28;20038;-75
2021/11/03 03:48:52;;;;;;;9.77;2.20;;;11.90;99.90;;;;;;5076432;28;20021;-75
2021/11/03 03:51:18;;;;;;;17.02;2.67;;;11.80;99.90;;;;;;5052432;28;20029;-75
2021/11/03 03:53:44;;;;;;;13.07;2.10;;;11.80;99.90;;;;;;5043417;28;20100;-75
2021/11/03 03:56:15;;;;;;;18.05;2.75;;;11.80;99.90;;;;;;5053220;28;20032;-75
2021/11/03 03:58:42;;;;;;;14.40;2.80;;;11.80;99.90;;;;;;5044776;28;20686;-76
2021/11/03 04:01:09;;;;;;;15.60;3.17;;;11.80;99.90;;;;;;5034057;28;20054;-76
2021/11/03 04:03:35;;;;;;;10.23;2.20;;;11.80;99.90;;;;;;5044818;28;20026;-76
2021/11/03 04:06:00;;;;;;;15.45;2.55;;;11.80;99.90;;;;;;5033789;28;20515;-76
2021/11/03 04:08:27;;;;;;;13.65;2.40;;;11.80;99.90;;;;;;5044080;28;20096;-76
2021/11/03 04:10:53;;;;;;;15.60;2.65;;;11.80;99.90;;;;;;5033879;28;20169;-75
2021/11/03 04:13:20;;;;;;;13.80;2.20;;;11.80;99.90;;;;;;5042219;28;20133;-75
2021/11/03 04:15:46;;;;;;;13.00;2.47;;;11.90;99.90;;;;;;5053882;28;20472;-75
2021/11/03 04:18:12;;;;;;;11.55;2.40;;;11.90;99.90;;;;;;5045547;28;20033;-76
2021/11/03 04:20:38;;;;;;;18.73;3.13;;;11.90;99.90;;;;;;5032284;28;20033;-76
2021/11/03 04:23:04;;;;;;;12.75;2.30;;;12.00;99.90;;;;;;5044334;28;20039;-76
2021/11/03 04:25:30;;;;;;;13.65;2.25;;;12.00;99.90;;;;;;5034187;28;20505;-76
2021/11/03 04:27:56;;;;;;;13.55;2.63;;;12.00;99.90;;;;;;5040687;28;20038;-76
2021/11/03 04:30:23;;;;;;;11.68;1.88;;;12.00;99.90;;;;;;5051863;28;20096;-76
2021/11/03 04:32:48;;;;;;;15.80;2.38;;;12.00;99.90;;;;;;5047029;28;20064;-76
2021/11/03 04:35:15;;;;;;;14.80;3.30;;;12.10;99.90;;;;;;5035865;28;20046;-75
2021/11/03 04:37:41;;;;;;;11.40;2.92;;;12.10;99.90;;;;;;5045703;28;20393;-76
2021/11/03 04:40:10;;;;;;;13.60;2.72;;;12.20;99.90;;;;;;5036942;28;20030;-75
2021/11/03 04:42:36;;;;;;;15.27;2.42;;;12.20;99.90;;;;;;5038832;28;20673;-76
2021/11/03 04:45:04;;;;;;;18.35;2.75;;;12.30;99.90;;;;;;5048555;28;20068;-76
2021/11/03 04:47:29;;;;;;;13.70;2.80;;;12.30;99.90;;;;;;5046693;28;20500;-75
2021/11/03 04:49:57;;;;;;;15.43;2.90;;;12.30;99.90;;;;;;5038194;28;20104;-75
2021/11/03 04:52:23;;;;;;;15.20;2.33;;;12.40;99.90;;;;;;5037464;28;20063;-75
2021/11/03 04:54:49;;;;;;;17.27;2.30;;;12.40;99.90;;;;;;5045797;28;20029;-75
2021/11/03 04:57:19;;;;;;;14.48;2.72;;;12.30;99.90;;;;;;5048401;28;20040;-75
2021/11/03 04:59:46;;;;;;;12.95;2.65;;;12.30;99.90;;;;;;5039648;28;20518;-75
2021/11/03 05:02:12;;;;;;;10.32;2.22;;;12.30;99.90;;;;;;5036252;28;20052;-75
2021/11/03 05:04:38;;;;;;;10.50;2.05;;;12.30;99.90;;;;;;5038780;28;20038;-76
2021/11/03 05:07:05;;;;;;;15.77;2.58;;;12.30;99.90;;;;;;5034153;28;20105;-75
2021/11/03 05:09:31;;;;;;;17.38;2.28;;;12.40;99.90;;;;;;5043547;28;20021;-75
2021/11/03 05:11:57;;;;;;;11.07;2.60;;;12.30;99.90;;;;;;5046076;28;20044;-75
2021/11/03 05:14:23;;;;;;;8.07;2.08;;;12.30;99.90;;;;;;5044174;28;20396;-77
2021/11/03 05:16:48;;;;;;;11.48;2.15;;;12.30;99.90;;;;;;5044697;28;20107;-77
2021/11/03 05:19:28;;;;;;;16.17;2.53;;;12.30;99.90;;;;;;5075013;28;20033;-77
2021/11/03 05:21:55;;;;;;;14.98;2.70;;;12.40;99.90;;;;;;5043570;28;20441;-77
2021/11/03 05:24:20;;;;;;;15.02;2.85;;;12.40;99.90;;;;;;5038825;28;20056;-76
2021/11/03 05:26:47;;;;;;;19.63;2.42;;;12.40;99.90;;;;;;5035920;28;20069;-77
2021/11/03 05:29:13;;;;;;;11.98;2.55;;;12.40;99.90;;;;;;5043421;28;20028;-76
2021/11/03 05:31:39;;;;;;;17.30;2.42;;;12.40;99.90;;;;;;5049388;28;20525;-77
2021/11/03 05:34:05;;;;;;;12.07;2.20;;;12.40;99.90;;;;;;5040813;28;20112;-77
2021/11/03 05:36:31;;;;;;;20.98;2.63;;;12.40;99.90;;;;;;5035701;28;20639;-77
2021/11/03 05:39:04;;;;;;;16.60;2.88;;;12.50;99.90;;;;;;5051935;28;20630;-77
2021/11/03 05:41:30;;;;;;;18.42;2.78;;;12.60;99.90;;;;;;5049260;28;20017;-77
2021/11/03 05:43:58;;;;;;;13.85;2.85;;;12.60;99.90;;;;;;5042286;28;20377;-77
2021/11/03 05:46:33;;;;;;;19.70;2.85;;;12.60;99.90;;;;;;5030509;28;20034;-76
2021/11/03 05:49:01;;;;;;;12.95;2.35;;;12.60;99.90;;;;;;5040510;28;20032;-77
2021/11/03 05:51:26;;;;;;;13.07;1.70;;;12.60;99.90;;;;;;5048755;28;20484;-77
2021/11/03 05:53:53;;;;;;;14.73;2.83;;;12.60;99.90;;;;;;5041232;28;20105;-77
2021/11/03 05:56:18;;;;;;;13.52;2.83;;;12.50;99.90;;;;;;5034616;28;20147;-77
2021/11/03 05:58:44;;;;;;;14.68;2.35;;;12.50;99.90;;;;;;5042365;28;20100;-78
2021/11/03 06:01:10;;;;;;;12.95;2.65;;;12.50;99.90;;;;;;5031935;28;20132;-77
2021/11/03 06:03:36;;;;;;;11.48;2.88;;;12.50;99.90;;;;;;5074680;28;20218;-77
2021/11/03 06:06:03;;;;;;;14.38;2.85;;;12.50;99.90;;;;;;5031515;28;20029;-77
2021/11/03 06:08:29;;;;;;;19.75;2.63;;;12.60;99.90;;;;;;5043009;28;20415;-77
2021/11/03 06:10:56;;;;;;;11.77;2.38;;;12.60;99.90;;;;;;5031547;28;20022;-77
2021/11/03 06:13:22;;;;;;;26.30;3.03;;;12.60;99.90;;;;;;5043121;28;20021;-77
2021/11/03 06:15:48;;;;;;;18.63;2.85;;;12.70;99.90;;;;;;5031713;28;20097;-78
2021/11/03 06:18:14;;;;;;;19.75;2.83;;;12.80;99.90;;;;;;5042732;28;20361;-78
2021/11/03 06:20:40;;;;;;;13.77;2.88;;;12.80;99.90;;;;;;5031322;28;20033;-78
2021/11/03 06:23:06;;;;;;;15.68;2.70;;;12.90;99.90;;;;;;5070649;28;20373;-77
2021/11/03 06:25:34;;;;;;;13.23;2.42;;;12.90;99.90;;;;;;5082452;28;20064;-77
2021/11/03 06:28:01;;;;;;;17.40;3.50;;;12.90;99.90;;;;;;5048925;28;20108;-77
2021/11/03 06:30:30;;;;;;;19.83;3.30;;;13.00;99.90;;;;;;5051341;28;20086;-77
2021/11/03 06:32:57;;;;;;;19.25;3.00;;;13.10;99.90;;;;;;5048158;28;20029;-78
2021/11/03 06:35:23;;;;;;;15.43;2.53;;;13.20;99.90;;;;;;5031530;28;20044;-77
2021/11/03 06:37:50;;;;;;;13.52;2.83;;;13.30;99.90;;;;;;5039733;28;20029;-78
2021/11/03 06:40:20;;;;;;;16.65;3.10;;;13.40;99.90;;;;;;5049055;28;20521;-78
2021/11/03 06:42:46;;;;;;;14.07;2.42;;;13.50;99.90;;;;;;5043363;28;20104;-77
2021/11/03 06:45:13;;;;;;;18.08;3.25;;;13.60;99.90;;;;;;5048217;28;20132;-77
2021/11/03 06:47:39;;;;;;;13.77;2.50;;;13.60;99.90;;;;;;5044531;28;20021;-78
2021/11/03 06:50:08;;;;;;;17.45;3.42;;;13.70;99.90;;;;;;5048628;28;20621;-77
2021/11/03 06:52:35;;;;;;;12.98;2.90;;;13.80;99.90;;;;;;5045163;28;20033;-76
2021/11/03 06:55:01;;;;;;;18.10;3.15;;;13.80;99.90;;;;;;5046324;28;20083;-76
2021/11/03 06:57:27;;;;;;;15.80;2.38;;;13.90;99.90;;;;;;5044701;28;20100;-78
2021/11/03 06:59:53;;;;;;;14.23;2.83;;;14.00;99.90;;;;;;5042676;28;20445;-78
2021/11/03 07:02:19;;;;;;;17.70;2.97;;;14.10;99.90;;;;;;5043586;28;20127;-77
2021/11/03 07:04:45;;;;;;;8.70;2.03;;;14.30;99.90;;;;;;5042653;28;20128;-77
2021/11/03 07:07:11;;;;;;;12.95;2.83;;;14.40;99.90;;;;;;5046810;28;20029;-77
2021/11/03 07:09:37;;;;;;;19.00;2.85;;;14.50;99.90;;;;;;5046131;28;20021;-79
2021/11/03 07:12:04;;;;;;;10.75;2.40;;;14.60;99.90;;;;;;5044332;28;20041;-76
2021/11/03 07:14:29;;;;;;;14.95;2.95;;;14.70;99.90;;;;;;5042305;28;20084;-76
2021/11/03 07:16:55;;;;;;;12.38;3.03;;;14.70;99.90;;;;;;5030605;28;20034;-77
2021/11/03 07:19:21;;;;;;;10.93;2.67;;;14.80;99.90;;;;;;5045214;28;20032;-77
2021/11/03 07:21:47;;;;;;;12.63;2.90;;;14.80;99.90;;;;;;5075859;28;20090;-74
2021/11/03 07:24:13;;;;;;;14.50;2.30;;;14.90;99.90;;;;;;5041491;28;20036;-76
2021/11/03 07:26:43;;;;;;;13.02;2.53;;;15.00;99.90;;;;;;5041661;28;20018;-75
2021/11/03 07:29:11;;;;;;;14.20;2.80;;;15.10;99.90;;;;;;5040687;28;20025;-77
2021/11/03 07:31:37;;;;;;;9.48;2.92;;;15.10;99.90;;;;;;5046824;28;20127;-77
2021/11/03 07:34:03;;;;;;;18.50;3.22;;;15.20;99.90;;;;;;5038828;28;20101;-77
2021/11/03 07:36:30;;;;;;;12.55;3.30;;;15.20;99.90;;;;;;5044970;28;20499;-77
2021/11/03 07:38:56;;;;;;;15.85;3.15;;;15.20;99.90;;;;;;5049563;28;20021;-76
2021/11/03 07:41:22;;;;;;;19.10;3.22;;;15.20;99.90;;;;;;5050705;28;20496;-78
2021/11/03 07:43:48;;;;;;;14.38;3.05;;;15.20;99.90;;;;;;5043934;28;20071;-77
2021/11/03 07:46:14;;;;;;;16.90;3.53;;;15.30;99.90;;;;;;5041444;28;20028;-76
2021/11/03 07:48:40;;;;;;;14.43;3.35;;;15.40;99.90;;;;;;5049180;28;20017;-77
2021/11/03 07:51:17;;;;;;;16.15;3.10;;;15.50;99.90;;;;;;5054855;28;20032;-79
2021/11/03 07:53:45;;;;;;;13.23;3.08;;;15.60;99.90;;;;;;5041596;28;20026;-77
2021/11/03 07:56:15;;;;;;;16.35;2.80;;;15.70;99.90;;;;;;5075159;28;20021;-77
2021/11/03 07:58:41;;;;;;;14.48;2.75;;;15.80;99.90;;;;;;5049602;28;20036;-76
2021/11/03 08:01:09;;;;;;;11.63;2.88;;;15.90;99.90;;;;;;5052548;28;20522;-77
2021/11/03 08:03:35;;;;;;;10.13;2.50;;;16.00;99.90;;;;;;5059351;28;20037;-76
2021/11/03 08:06:02;;;;;;;12.02;2.63;;;16.10;99.90;;;;;;5053598;28;20072;-77
2021/11/03 08:08:30;;;;;;;15.27;3.25;;;16.20;99.90;;;;;;5035849;28;20034;-77
2021/11/03 08:10:57;;;;;;;12.43;3.17;;;16.30;99.90;;;;;;5048148;28;20488;-76
2021/11/03 08:13:26;;;;;;;12.90;3.13;;;16.30;99.90;;;;;;5044597;28;20051;-81
2021/11/03 08:15:58;;;;;;;12.65;3.00;;;16.30;99.90;;;;;;5053116;28;20104;-81
2021/11/03 08:18:27;;;;;;;12.50;2.65;;;16.30;99.90;;;;;;5044459;28;20021;-79
2021/11/03 08:20:54;;;;;;;12.82;2.53;;;16.40;99.90;;;;;;5051013;28;20610;-80
2021/11/03 08:23:20;;;;;;;13.70;3.00;;;16.40;99.90;;;;;;5055626;28;20032;-81
2021/11/03 08:25:46;;;;;;;9.32;2.65;;;16.50;99.90;;;;;;5054463;28;21515;-78
2021/11/03 08:28:12;;;;;;;12.75;2.35;;;16.60;99.90;;;;;;5047536;28;20032;-74
2021/11/03 08:30:42;;;;;;;11.00;2.50;;;16.80;99.90;;;;;;5050483;28;20116;-80
2021/11/03 08:33:13;;;;;;;9.18;2.47;;;17.00;99.90;;;;;;5048819;28;20028;-77
2021/11/03 08:35:44;;;;;;;9.65;2.58;;;17.10;99.90;;;;;;5050642;28;20033;-77
2021/11/03 08:38:16;;;;;;;7.40;2.22;;;17.20;99.90;;;;;;5046110;28;20108;-78
2021/11/03 08:40:44;;;;;;;10.45;2.53;;;17.30;99.90;;;;;;5049500;28;20645;-77
2021/11/03 08:43:12;;;;;;;14.93;2.90;;;17.40;99.90;;;;;;5047616;28;20052;-78
2021/11/03 08:45:39;;;;;;;9.48;2.38;;;17.50;99.90;;;;;;5036243;28;20049;-79
2021/11/03 08:48:07;;;;;;;13.80;2.40;;;17.50;99.90;;;;;;5046975;28;20029;-79
2021/11/03 08:50:35;;;;;;;11.32;3.03;;;17.60;99.90;;;;;;5047260;28;20025;-79
2021/11/03 08:53:01;;;;;;;8.93;2.60;;;17.60;99.90;;;;;;5048029;28;20433;-78
2021/11/03 08:55:29;;;;;;;11.23;2.30;;;17.70;99.90;;;;;;5047021;28;20534;-76
2021/11/03 08:57:56;;;;;;;6.28;2.10;;;17.70;99.90;;;;;;5049335;28;20025;-77
2021/11/03 09:00:25;;;;;;;10.73;1.95;;;17.60;99.90;;;;;;5047500;28;20360;-80
2021/11/03 09:02:55;;;;;;;13.90;2.70;;;17.60;99.90;;;;;;5049983;28;20095;-78
2021/11/03 09:05:22;;;;;;;8.10;2.35;;;17.90;99.90;;;;;;5048078;28;20060;-81
2021/11/03 09:07:48;;;;;;;8.82;2.55;;;18.30;99.90;;;;;;5049253;28;20499;-78
2021/11/03 09:10:17;;;;;;;9.80;2.38;;;18.60;99.90;;;;;;5047652;28;20029;-78
2021/11/03 09:12:47;;;;;;;10.15;2.38;;;18.80;99.90;;;;;;5040815;28;20022;-76
2021/11/03 09:15:14;;;;;;;11.18;2.58;;;18.80;99.90;;;;;;5050387;28;20484;-80
2021/11/03 09:17:40;;;;;;;13.35;2.67;;;18.80;99.90;;;;;;5078402;28;20454;-79
2021/11/03 09:20:09;;;;;;;10.30;2.58;;;18.70;99.90;;;;;;5047763;28;20475;-78
2021/11/03 09:22:39;;;;;;;7.03;2.50;;;18.70;99.90;;;;;;5048151;28;20107;-78
2021/11/03 09:25:12;;;;;;;13.18;2.45;;;18.50;99.90;;;;;;5048479;28;20100;-75
2021/11/03 09:27:38;;;;;;;10.40;1.60;;;18.50;99.90;;;;;;5040230;28;20104;-76
2021/11/03 09:30:06;;;;;;;6.75;2.28;;;18.40;99.90;;;;;;5050870;28;20123;-79
2021/11/03 09:32:33;;;;;;;10.35;2.58;;;18.40;99.90;;;;;;5046115;28;20022;-79
2021/11/03 09:34:59;;;;;;;16.45;2.38;;;18.50;99.90;;;;;;5042015;28;20029;-79
2021/11/03 09:37:27;;;;;;;6.00;2.13;;;18.70;99.90;;;;;;5048059;28;20021;-77
2021/11/03 09:39:55;;;;;;;9.70;2.20;;;18.90;99.90;;;;;;5050932;28;20025;-76
2021/11/03 09:42:23;;;;;;;12.10;2.15;;;19.00;99.90;;;;;;5049955;28;20561;-75
2021/11/03 09:44:52;;;;;;;9.20;2.28;;;19.00;99.90;;;;;;5050634;28;20037;-76
2021/11/03 09:47:20;;;;;;;14.95;2.67;;;19.10;99.90;;;;;;5045683;28;20102;-78
2021/11/03 09:49:50;;;;;;;6.07;2.00;;;19.10;99.90;;;;;;5049776;28;20029;-76
2021/11/03 09:52:26;;;;;;;7.97;2.10;;;18.90;99.90;;;;;;5044975;28;20048;-74
2021/11/03 09:54:55;;;;;;;9.98;1.92;;;18.70;99.90;;;;;;5049199;28;20032;-79
2021/11/03 09:57:46;;;;;;;6.95;1.95;;;18.50;99.90;;;;;;5048047;28;20052;-76
2021/11/03 10:00:53;;;;;;;11.80;2.35;;;18.30;99.90;;;;;;5048592;28;20102;-79
2021/11/03 10:04:03;;;;;;;12.70;3.05;;;18.10;99.90;;;;;;5028054;28;20104;-83
2021/11/03 10:06:45;;;;;;;16.08;2.63;;;18.00;99.90;;;;;;5012162;28;20041;-80
2021/11/03 10:09:10;;;;;;;8.50;2.25;;;17.80;99.90;;;;;;5038034;28;20056;-75
2021/11/03 10:11:45;;;;;;;7.30;1.65;;;17.80;99.90;;;;;;5034002;28;20021;-79
2021/11/03 10:14:11;;;;;;;11.20;2.13;;;17.70;99.90;;;;;;5046506;28;20529;-79
2021/11/03 10:16:39;;;;;;;6.93;2.00;;;17.70;99.90;;;;;;5046146;28;20036;-80
2021/11/03 10:19:19;;;;;;;12.40;2.30;;;17.70;99.90;;;;;;5050428;28;20014;-91
2021/11/03 10:21:53;;;;;;;13.02;2.42;;;17.70;99.90;;;;;;5050986;28;20491;-83
2021/11/03 10:24:20;;;;;;;14.38;2.53;;;17.60;99.90;;;;;;5044379;28;20029;-80
2021/11/03 10:26:48;;;;;;;8.38;2.05;;;17.70;99.90;;;;;;5052541;28;20361;-88
2021/11/03 10:29:18;;;;;;;10.10;2.05;;;17.70;99.90;;;;;;5052033;28;20502;-82
2021/11/03 10:31:53;;;;;;;9.52;2.08;;;17.70;99.90;;;;;;5048366;28;20479;-83
2021/11/03 10:34:22;;;;;;;11.73;2.20;;;17.70;99.90;;;;;;5049214;28;20061;-89
2021/11/03 10:36:58;;;;;;;8.00;2.30;;;17.60;99.90;;;;;;5031766;28;20585;-76
2021/11/03 10:39:25;;;;;;;8.63;2.00;;;17.60;99.90;;;;;;5050226;28;20029;-77
2021/11/03 10:41:58;;;;;;;9.27;1.70;;;17.60;99.90;;;;;;5048168;28;20472;-81
2021/11/03 10:44:27;;;;;;;12.93;2.15;;;17.60;99.90;;;;;;5057235;28;20082;-82
2021/11/03 10:47:10;;;;;;;11.63;2.20;;;17.60;99.90;;;;;;5047615;28;20033;-80
2021/11/03 10:50:02;;;;;;;14.70;2.47;;;17.60;99.90;;;;;;5058125;28;20017;-81
2021/11/03 10:52:32;;;;;;;24.88;4.57;;;17.70;99.90;;;;;;5044354;28;20029;-84
2021/11/03 10:55:13;;;;;;;224.02;45.50;;;17.90;99.90;;;;;;5081339;28;20021;-86
2021/11/03 10:57:46;;;;;;;53.80;12.93;;;18.00;99.90;;;;;;5052194;28;20021;-87
2021/11/03 11:00:31;;;;;;;37.38;8.85;;;18.20;99.90;;;;;;5053425;28;20059;-88
2021/11/03 11:03:22;;;;;;;33.03;7.97;;;18.30;99.90;;;;;;5068032;28;20228;-86
2021/11/03 11:05:55;;;;;;;16.80;4.15;;;18.20;99.90;;;;;;5047796;28;20521;-83
2021/11/03 11:08:26;;;;;;;;;;;18.20;99.90;;;;;;5052217;28;20103;-87
2021/11/03 11:11:02;;;;;;;11.90;3.33;;;18.20;99.90;;;;;;5044658;28;19905;-89
2021/11/03 11:14:02;;;;;;;35.60;8.00;;;18.10;99.90;;;;;;5059375;28;20074;-86
2021/11/03 11:16:47;;;;;;;22.05;6.30;;;18.00;99.90;;;;;;5066116;28;20025;-82
2021/11/03 11:19:40;;;;;;;32.08;7.18;;;18.10;99.90;;;;;;5049551;28;20036;-83
2021/11/03 11:22:08;;;;;;;23.67;5.60;;;18.30;99.90;;;;;;5090837;28;20379;-82
2021/11/03 11:25:15;;;;;;;22.75;4.68;;;18.50;99.90;;;;;;5051859;28;20041;-88
2021/11/03 11:28:18;;;;;;;16.88;3.75;;;18.80;99.90;;;;;;5033228;28;20141;-84
2021/11/03 11:30:55;;;;;;;17.00;4.15;;;19.20;99.90;;;;;;5051292;28;20006;-84
2021/11/03 11:33:30;;;;;;;18.20;4.28;;;19.30;99.90;;;;;;5052921;28;20624;-80
2021/11/03 11:36:14;;;;;;;29.67;4.97;;;19.30;99.90;;;;;;5065134;28;20095;-87
2021/11/03 11:39:11;;;;;;;18.00;4.40;;;19.20;99.90;;;;;;5065382;28;21433;-86
2021/11/03 11:42:12;;;;;;;22.92;4.13;;;19.10;99.90;;;;;;5072219;28;20068;-86
2021/11/03 11:45:09;;;;;;;27.00;4.97;;;19.20;99.90;;;;;;5059537;28;20032;-83
2021/11/03 11:47:42;;;;;;;18.77;4.30;;;19.40;99.90;;;;;;5039860;28;20033;-87
2021/11/03 11:50:57;;;;;;;19.38;4.18;;;19.60;99.90;;;;;;5043448;28;20053;-84
2021/11/03 11:53:38;;;;;;;17.13;4.15;;;19.60;99.90;;;;;;5050633;28;20048;-87
2021/11/03 11:56:09;;;;;;;16.58;4.85;;;19.50;99.90;;;;;;5058286;28;20075;-82
2021/11/03 11:58:38;;;;;;;15.00;4.10;;;19.40;99.90;;;;;;5067058;28;20052;-86
2021/11/03 12:01:21;;;;;;;15.80;4.07;;;19.30;99.90;;;;;;5071936;28;20511;-85
2021/11/03 12:03:56;;;;;;;20.17;4.95;;;19.10;99.90;;;;;;5054120;28;20048;-87
2021/11/03 12:09:35;;;;;;;25.77;4.28;;;18.80;99.90;;;;;;5006774;28;20054;-82
2021/11/03 12:12:07;;;;;;;19.27;4.40;;;18.60;99.90;;;;;;5008371;28;20060;-85
2021/11/03 12:14:53;;;;;;;;;;;18.60;99.90;;;;;;5012522;28;20053;-83
2021/11/03 12:17:35;;;;;;;12.75;3.08;;;18.60;99.90;;;;;;5000926;28;20332;-83
2021/11/03 12:20:21;;;;;;;14.02;3.65;;;18.60;99.90;;;;;;5002841;28;20503;-85
2021/11/03 12:22:49;;;;;;;14.13;4.28;;;18.50;99.90;;;;;;4992278;28;20098;-87
2021/11/03 12:25:18;;;;;;;16.75;4.15;;;18.40;99.90;;;;;;5016921;28;20038;-86
2021/11/03 12:27:46;;;;;;;21.75;4.80;;;18.40;99.90;;;;;;5002711;28;20078;-87
2021/11/03 12:30:18;;;;;;;23.77;5.10;;;18.40;99.90;;;;;;4980629;28;20042;-87
2021/11/03 12:32:43;;;;;;;27.80;5.93;;;18.30;99.90;;;;;;5001067;28;20073;-87
2021/11/03 12:35:18;;;;;;;18.70;4.13;;;18.20;99.90;;;;;;4982712;28;20121;-87
2021/11/03 12:37:57;;;;;;;21.50;4.25;;;18.20;99.90;;;;;;4977657;28;20022;-87
2021/11/03 12:40:35;;;;;;;23.67;5.68;;;18.20;99.90;;;;;;4999350;28;20022;-88
2021/11/03 12:43:22;;;;;;;16.50;4.55;;;18.20;99.90;;;;;;4985709;28;20022;-86
2021/11/03 12:46:23;;;;;;;22.55;4.15;;;18.20;99.90;;;;;;4988920;28;20531;-88
2021/11/03 12:48:58;;;;;;;25.98;4.28;;;18.00;99.90;;;;;;4944125;29;20110;-87
2021/11/03 12:51:44;;;;;;;20.65;4.47;;;18.00;99.90;;;;;;4980139;28;20034;-86
2021/11/03 12:54:21;;;;;;;19.25;4.07;;;17.90;99.90;;;;;;4987605;28;20073;-87
2021/11/03 12:56:58;;;;;;;16.17;3.03;;;17.90;99.90;;;;;;5000330;28;20612;-85